Washington, United Kingdom
Current Conditions -  °F | °C
As of 12:50 PM on Saturday 20 Dec 2014 (Local Time) from EGNT Reporting Station
Few Clouds Few Clouds  
Wind Chill: 37°   Ceiling: Unl
Heat Index: 45°   Visibility: 6mi
Dew Point: 37°   Wind: 16mph
Humidity: 76%   Direction: 290°WNW
Pressure: 30.09"   Gusts: NA
Location:  54.9°N, 1.53°W
Report Text: EGNT 201250Z 29014KT 260V320 9999 FEW038 07/03 Q1019
Loading
Personal Weather Stations






























Interactive Weather Map New forecast layout! Learn more

10-Day Weather Forecast

Advertisements
Track Severe Weather on mobile